Pembroke Pines, FL (33025)

10:23 AM EDT on October 31, 2014 (GMT -0400)
APRSWXNET Miramar FL US | Change Station
CLOSE
Current Station
Personal Weather Station
Location: Pembroke Pines, FL
Elevation: 6 ft
Nearby Weather Stations

Elev 6 ft 25.99 °N, 80.28 °W | Updated 20 minutes ago

Partly Cloudy
Partly Cloudy
78.0 °F
Feels Like 80 °F
N
2.0
Wind Variable Wind from NW
Gusts 4.0 mph

Today
High -- | Low -- °F
--% Chance of Precip.
Yesterday
High -- | Low -- °F
Precip. -- in
7:29 AM 6:39 PM
First Quarter, 55% visible
Pressure 29.89 in
Visibility 10.0 miles
Clouds Few 3500 ft
Heat Index 80 °F
Dew Point 71.0 °F
Humidity 80%
Rainfall 0.00 in
Snow Depth Not available.
UV 3 out of 12
Pollen 3.10 out of 12
Air Quality Not available.
Flu Activity Not available.
METAR KOPF 311353Z 29008KT 10SM FEW035 26/19 A2989 RMK AO2 SLP121 T02610194

More Conditions Fewer Conditions

Pressure 29.89 in
Visibility 10.0 miles
Clouds Few 3500 ft
Heat Index 80 °F
Dew Point 71.0 °F
Humidity 80%
Rainfall 0.00 in
Snow Depth Not available.
UV 3 out of 12
Pollen 3.10 out of 12
Air Quality Not available.
Flu Activity Not available.
METAR KOPF 311353Z 29008KT 10SM FEW035 26/19 A2989 RMK AO2 SLP121 T02610194

More Conditions Fewer Conditions

10-Day Weather Forecast

Almanac

Astronomy

Oct. 31, 2014 Rise Set
Actual Time
Civil Twilight
Nautical Twilight
Astronomical Twilight
Moon
Length of Visible Light
Length of Day
Tomorrow will be .
, % of the Moon is Illuminated

Today's Extremes

State Highs State Lows

Community

WunderPhotos

Upload Photos

1,766,617 photos uploaded!

WunderBlogs® & News

Nearby

Air Quality

  Air Quality AQ Index Pollutant
Not available.

Snow Depth

Station Depth Elevation

Earthquake Activity

City Distance Mag. Time & Date
Minimum magnitude displayed is 2.5.

Coastal Water Temperatures

Place Temperature

Nearby Weather Stations